createdAt,value
2024-01-20T00:01:58.123Z,-7.32
2024-01-20T00:05:00.832Z,-7.38
2024-01-20T00:08:02.517Z,-7.35
2024-01-20T00:11:04.339Z,-7.38
2024-01-20T00:14:06.094Z,-7.39
2024-01-20T00:17:13.590Z,-7.36
2024-01-20T00:20:24.794Z,-7.31
2024-01-20T00:23:26.491Z,-7.35
2024-01-20T00:29:46.350Z,-7.42
2024-01-20T00:33:10.517Z,-7.43
2024-01-20T00:36:12.454Z,-7.43
2024-01-20T00:43:16.740Z,-7.48
2024-01-20T00:46:18.189Z,-7.42
2024-01-20T00:49:19.637Z,-7.46
2024-01-20T00:56:23.968Z,-7.51
2024-01-20T00:59:25.470Z,-7.50
2024-01-20T01:02:30.188Z,-7.58
2024-01-20T01:05:31.659Z,-7.53
2024-01-20T01:08:33.112Z,-7.53
2024-01-20T01:15:38.024Z,-7.59
2024-01-20T01:22:36.592Z,-7.64
2024-01-20T01:30:15.334Z,-7.60
2024-01-20T01:37:20.048Z,-7.63
2024-01-20T01:40:24.549Z,-7.78
2024-01-20T01:47:28.982Z,-7.73
2024-01-20T01:50:30.752Z,-7.76
2024-01-20T02:09:45.471Z,-7.71
2024-01-20T02:12:47.306Z,-7.71
2024-01-20T02:16:01.753Z,-7.67
2024-01-20T02:19:03.950Z,-7.64
2024-01-20T02:26:09.187Z,-7.62
2024-01-20T02:29:35.504Z,-7.62
2024-01-20T02:36:58.846Z,-7.64
2024-01-20T02:40:00.369Z,-7.66
2024-01-20T02:46:58.836Z,-7.75
2024-01-20T02:50:00.416Z,-7.75
2024-01-20T02:53:01.897Z,-7.75
2024-01-20T02:56:03.371Z,-7.73
2024-01-20T02:59:04.804Z,-7.82
2024-01-20T03:02:06.429Z,-7.86
2024-01-20T03:05:08.211Z,-7.90
2024-01-20T03:08:09.803Z,-7.97
2024-01-20T03:11:11.249Z,-7.99
2024-01-20T03:14:12.886Z,-7.93
2024-01-20T03:17:15.469Z,-7.86
2024-01-20T03:20:16.904Z,-7.79
2024-01-20T03:23:18.326Z,-7.72
2024-01-20T03:26:19.753Z,-7.72
2024-01-20T03:29:21.151Z,-7.76
2024-01-20T03:32:22.663Z,-7.73
2024-01-20T03:35:24.104Z,-7.77
2024-01-20T03:38:25.573Z,-7.77
2024-01-20T03:41:27.008Z,-7.84
2024-01-20T03:44:28.703Z,-7.84
2024-01-20T03:47:31.153Z,-7.89
2024-01-20T03:50:33.904Z,-7.87
2024-01-20T03:53:35.442Z,-7.85
2024-01-20T03:56:44.513Z,-7.89
2024-01-20T03:59:46.037Z,-7.95
2024-01-20T04:02:47.829Z,-7.97
2024-01-20T04:05:49.324Z,-8.01
2024-01-20T04:08:50.785Z,-8.05
2024-01-20T04:11:52.771Z,-8.06
2024-01-20T04:14:54.243Z,-8.04
2024-01-20T04:17:55.860Z,-8.01
2024-01-20T04:20:57.365Z,-8.00
2024-01-20T04:23:58.876Z,-8.16
2024-01-20T04:27:00.770Z,-8.35
2024-01-20T04:30:02.257Z,-8.22
2024-01-20T04:33:04.008Z,-8.16
2024-01-20T04:36:05.766Z,-8.17
2024-01-20T04:39:07.241Z,-8.21
2024-01-20T04:42:08.767Z,-8.27
2024-01-20T04:45:12.358Z,-8.32
2024-01-20T04:48:14.009Z,-8.37
2024-01-20T04:51:15.558Z,-8.35
2024-01-20T04:54:17.076Z,-8.35
2024-01-20T04:57:18.570Z,-8.26
2024-01-20T05:00:20.050Z,-8.17
2024-01-20T05:03:21.755Z,-8.24
2024-01-20T05:06:23.707Z,-8.29
2024-01-20T05:09:25.460Z,-8.28
2024-01-20T05:12:27.320Z,-8.34
2024-01-20T05:15:28.816Z,-8.45
2024-01-20T05:18:30.393Z,-8.43
2024-01-20T05:21:32.036Z,-8.41
2024-01-20T05:24:33.696Z,-8.32
2024-01-20T05:27:35.238Z,-8.26
2024-01-20T05:30:36.725Z,-8.20
2024-01-20T05:33:38.358Z,-8.17
2024-01-20T05:36:39.853Z,-8.25
2024-01-20T05:39:41.252Z,-8.34
2024-01-20T05:42:42.665Z,-8.47
2024-01-20T05:45:44.180Z,-8.54
2024-01-20T05:48:45.764Z,-8.53
2024-01-20T05:51:47.271Z,-8.50
2024-01-20T05:54:48.708Z,-8.48
2024-01-20T05:57:50.321Z,-8.50
2024-01-20T06:00:51.784Z,-8.59
2024-01-20T06:03:53.321Z,-8.49
2024-01-20T06:06:54.779Z,-8.48
2024-01-20T06:09:56.225Z,-8.51
2024-01-20T06:12:57.639Z,-8.49
2024-01-20T06:15:59.338Z,-8.48
2024-01-20T06:19:00.852Z,-8.52
2024-01-20T06:22:02.733Z,-8.46
2024-01-20T06:25:04.796Z,-8.50
2024-01-20T06:28:07.021Z,-8.64
2024-01-20T06:31:08.503Z,-8.58
2024-01-20T06:34:10.002Z,-8.51
2024-01-20T06:37:11.626Z,-8.34
2024-01-20T06:40:13.064Z,-8.31
2024-01-20T06:43:14.672Z,-8.39
2024-01-20T06:46:16.407Z,-8.44
2024-01-20T06:49:18.116Z,-8.37
2024-01-20T06:52:19.578Z,-8.27
2024-01-20T06:55:21.529Z,-8.36
2024-01-20T06:58:23.201Z,-8.51
2024-01-20T07:01:24.931Z,-8.53
2024-01-20T07:04:26.446Z,-8.50
2024-01-20T07:07:28.178Z,-8.48
2024-01-20T07:10:29.763Z,-8.48
2024-01-20T07:13:31.202Z,-8.51
2024-01-20T07:16:35.747Z,-8.57
2024-01-20T07:19:37.343Z,-8.55
2024-01-20T07:22:38.938Z,-8.59
2024-01-20T07:25:40.640Z,-8.54
2024-01-20T07:28:42.269Z,-8.53
2024-01-20T07:31:43.842Z,-8.52
2024-01-20T07:34:45.608Z,-8.52
2024-01-20T07:37:47.536Z,-8.50
2024-01-20T07:40:49.224Z,-8.53
2024-01-20T07:43:51.091Z,-8.58
2024-01-20T07:46:52.518Z,-8.52
2024-01-20T07:49:54.129Z,-8.54
2024-01-20T07:52:55.645Z,-8.52
2024-01-20T07:55:57.231Z,-8.45
2024-01-20T07:58:59.012Z,-8.43
2024-01-20T08:14:22.066Z,-8.43
2024-01-20T08:17:23.774Z,-8.45
2024-01-20T08:20:25.380Z,-8.42
2024-01-20T08:23:26.859Z,-8.40
2024-01-20T08:26:28.336Z,-8.35
2024-01-20T08:29:29.830Z,-8.30
2024-01-20T08:32:31.294Z,-8.30
2024-01-20T08:35:32.787Z,-8.27
2024-01-20T08:38:34.244Z,-8.21
2024-01-20T08:41:36.692Z,-8.18
2024-01-20T08:44:38.153Z,-8.11
2024-01-20T08:48:18.610Z,-7.95
2024-01-20T08:51:21.042Z,-7.90
2024-01-20T09:01:46.902Z,-7.64
2024-01-20T09:04:48.410Z,-7.50
2024-01-20T09:15:56.713Z,-3.30
2024-01-20T09:23:54.493Z,0.49
2024-01-20T09:31:05.449Z,1.24
2024-01-20T09:34:07.324Z,1.48
2024-01-20T09:37:11.955Z,1.62
2024-01-20T09:40:13.759Z,2.45
2024-01-20T09:43:15.180Z,2.30
2024-01-20T09:46:16.747Z,3.62
2024-01-20T09:49:18.361Z,3.84
2024-01-20T09:52:26.469Z,3.14
2024-01-20T09:55:29.118Z,2.62
2024-01-20T09:58:30.590Z,3.54
2024-01-20T10:01:32.067Z,3.22
2024-01-20T10:04:33.928Z,3.61
2024-01-20T10:07:35.429Z,2.63
2024-01-20T10:10:36.881Z,2.62
2024-01-20T10:13:38.363Z,0.83
2024-01-20T10:16:42.701Z,2.80
2024-01-20T10:19:44.284Z,3.74
2024-01-20T10:22:45.780Z,5.16
2024-01-20T10:25:47.191Z,5.78
2024-01-20T10:28:48.725Z,4.33
2024-01-20T10:31:50.706Z,4.17
2024-01-20T10:34:52.327Z,4.41
2024-01-20T10:37:53.920Z,4.89
2024-01-20T10:40:55.417Z,5.57
2024-01-20T10:44:01.094Z,5.45
2024-01-20T10:47:02.677Z,6.58
2024-01-20T10:50:07.452Z,6.23
2024-01-20T10:53:08.905Z,5.83
2024-01-20T10:56:10.404Z,4.37
2024-01-20T10:59:17.958Z,4.74
2024-01-20T11:02:19.889Z,3.07
2024-01-20T11:05:24.433Z,3.12
2024-01-20T11:08:26.438Z,3.15
2024-01-20T11:11:28.588Z,4.75
2024-01-20T11:14:31.033Z,3.51
2024-01-20T11:17:32.508Z,4.62
2024-01-20T11:20:34.045Z,2.60
2024-01-20T11:23:38.699Z,3.65
2024-01-20T11:26:40.147Z,4.21
2024-01-20T11:29:41.617Z,4.74
2024-01-20T11:32:43.676Z,5.14
2024-01-20T11:35:45.224Z,5.23
2024-01-20T11:38:46.826Z,5.31
2024-01-20T11:41:48.304Z,3.84
2024-01-20T11:44:49.706Z,2.87
2024-01-20T11:47:52.120Z,1.80
2024-01-20T11:50:53.749Z,0.76
2024-01-20T11:53:55.197Z,0.33
2024-01-20T11:56:57.280Z,0.65
2024-01-20T11:59:59.172Z,0.53
2024-01-20T12:03:00.729Z,0.51
2024-01-20T12:06:06.491Z,0.56
2024-01-20T12:09:08.421Z,0.39
2024-01-20T12:12:10.120Z,0.62
2024-01-20T12:15:14.846Z,0.43
2024-01-20T12:18:18.168Z,0.68
2024-01-20T12:21:19.831Z,0.65
2024-01-20T12:24:21.358Z,0.70
2024-01-20T12:27:24.489Z,0.83
2024-01-20T12:30:26.138Z,0.64
2024-01-20T12:33:27.639Z,0.65
2024-01-20T12:36:29.193Z,0.84
2024-01-20T12:39:30.656Z,0.93
2024-01-20T12:42:32.961Z,0.43
2024-01-20T12:49:37.492Z,0.97
2024-01-20T12:52:41.937Z,0.84
2024-01-20T12:55:44.025Z,0.69
2024-01-20T12:58:45.489Z,0.59
2024-01-20T13:01:47.175Z,0.41
2024-01-20T13:04:48.740Z,0.39
2024-01-20T13:07:50.224Z,0.12
2024-01-20T13:10:51.683Z,0.23
2024-01-20T13:13:53.274Z,0.28
2024-01-20T13:16:54.733Z,0.26
2024-01-20T13:19:56.199Z,0.20
2024-01-20T13:22:57.664Z,0.12
2024-01-20T13:26:00.758Z,-0.06
2024-01-20T13:29:02.154Z,-0.06
2024-01-20T13:32:03.774Z,-0.11
2024-01-20T13:35:05.533Z,-0.31
2024-01-20T13:38:07.005Z,-0.33
2024-01-20T13:41:08.520Z,-0.25
2024-01-20T13:44:10.003Z,-0.44
2024-01-20T13:47:11.438Z,-0.45
2024-01-20T13:50:12.965Z,-0.30
2024-01-20T13:53:14.472Z,-0.34
2024-01-20T13:56:16.000Z,-0.35
2024-01-20T13:59:17.467Z,-0.33
2024-01-20T14:02:18.950Z,-0.43
2024-01-20T14:05:20.368Z,-0.58
2024-01-20T14:08:23.335Z,-0.80
2024-01-20T14:11:24.999Z,-0.68
2024-01-20T14:14:26.414Z,-0.83
2024-01-20T14:17:28.778Z,-0.86
2024-01-20T14:20:30.213Z,-0.84
2024-01-20T14:23:32.883Z,-1.06
2024-01-20T14:26:34.370Z,-1.32
2024-01-20T14:29:35.783Z,-1.35
2024-01-20T14:32:37.265Z,-1.26
2024-01-20T14:35:38.702Z,-1.28
2024-01-20T14:38:40.134Z,-1.32
2024-01-20T14:41:41.584Z,-1.43
2024-01-20T14:44:43.161Z,-1.50
2024-01-20T15:07:30.939Z,-2.25
2024-01-20T15:10:33.148Z,-2.23
2024-01-20T15:13:34.567Z,-2.28
2024-01-20T15:16:36.439Z,-2.27
2024-01-20T15:19:42.249Z,-2.39
2024-01-20T15:22:47.786Z,-2.49
2024-01-20T15:25:51.303Z,-2.50
2024-01-20T15:28:54.162Z,-2.60
2024-01-20T15:31:56.868Z,-2.62
2024-01-20T15:34:59.681Z,-2.65
2024-01-20T15:38:02.522Z,-2.82
2024-01-20T15:41:04.847Z,-2.86
2024-01-20T15:44:06.360Z,-3.02
2024-01-20T15:47:09.834Z,-3.13
2024-01-20T15:50:11.279Z,-3.39
2024-01-20T15:53:12.764Z,-3.64
2024-01-20T15:56:15.075Z,-3.80
2024-01-20T15:59:17.889Z,-3.98
2024-01-20T16:02:19.351Z,-4.03
2024-01-20T16:05:21.225Z,-4.18
2024-01-20T16:08:22.639Z,-4.38
2024-01-20T16:11:24.031Z,-4.49
2024-01-20T16:14:26.941Z,-4.57
2024-01-20T16:17:28.555Z,-4.72
2024-01-20T16:20:30.065Z,-4.73
2024-01-20T16:23:31.550Z,-4.74
2024-01-20T16:26:32.974Z,-4.77
2024-01-20T16:29:34.452Z,-4.80
2024-01-20T16:32:36.329Z,-4.88
2024-01-20T16:35:37.783Z,-5.00
2024-01-20T16:38:39.221Z,-4.96
2024-01-20T16:41:40.707Z,-4.98
2024-01-20T16:44:42.122Z,-5.07
2024-01-20T16:47:43.714Z,-4.94
2024-01-20T16:50:45.207Z,-4.97
2024-01-20T16:53:47.262Z,-4.98
2024-01-20T16:56:48.658Z,-5.06
2024-01-20T16:59:51.128Z,-5.02
2024-01-20T17:02:53.091Z,-5.01
2024-01-20T17:05:54.639Z,-5.19
2024-01-20T17:08:56.123Z,-5.25
2024-01-20T17:11:57.564Z,-5.18
2024-01-20T17:14:59.060Z,-5.21
2024-01-20T17:18:00.629Z,-5.29
2024-01-20T17:21:04.328Z,-5.20
2024-01-20T17:24:05.952Z,-5.16
2024-01-20T17:27:07.482Z,-5.26
2024-01-20T17:30:09.274Z,-5.28
2024-01-20T17:33:10.802Z,-5.33
2024-01-20T17:36:12.589Z,-5.31
2024-01-20T17:39:14.199Z,-5.31
2024-01-20T17:42:15.716Z,-5.32
2024-01-20T17:45:17.754Z,-5.30
2024-01-20T17:48:21.114Z,-5.26
2024-01-20T17:51:22.648Z,-5.27
2024-01-20T17:54:28.495Z,-5.36
2024-01-20T17:57:30.452Z,-5.54
2024-01-20T18:00:31.889Z,-5.67
2024-01-20T18:03:34.197Z,-5.57
2024-01-20T18:06:35.836Z,-5.56
2024-01-20T18:09:38.683Z,-5.63
2024-01-20T18:12:42.693Z,-5.65
2024-01-20T18:15:46.143Z,-5.52
2024-01-20T18:18:47.919Z,-5.46
2024-01-20T18:21:49.641Z,-5.45
2024-01-20T18:24:52.350Z,-5.49
2024-01-20T18:27:53.895Z,-5.46
2024-01-20T18:30:55.344Z,-5.47
2024-01-20T18:33:57.036Z,-5.47
2024-01-20T18:36:58.620Z,-5.51
2024-01-20T18:40:00.112Z,-5.51
2024-01-20T18:43:01.605Z,-5.52
2024-01-20T18:46:03.219Z,-5.43
2024-01-20T18:49:04.724Z,-5.42
2024-01-20T18:52:06.467Z,-5.40
2024-01-20T18:55:08.463Z,-5.36
2024-01-20T18:58:10.337Z,-5.35
2024-01-20T19:01:12.115Z,-5.36
2024-01-20T19:04:13.673Z,-5.31
2024-01-20T19:07:15.108Z,-5.34
2024-01-20T19:10:16.745Z,-5.31
2024-01-20T19:13:18.139Z,-5.32
2024-01-20T19:16:19.723Z,-5.31
2024-01-20T19:19:21.246Z,-5.33
2024-01-20T19:22:22.744Z,-5.28
2024-01-20T19:25:24.130Z,-5.25
2024-01-20T19:28:25.579Z,-5.26
2024-01-20T19:31:26.978Z,-5.37
2024-01-20T19:34:28.640Z,-5.39
2024-01-20T19:37:31.060Z,-5.33
2024-01-20T19:40:32.489Z,-5.36
2024-01-20T19:43:36.231Z,-5.31
2024-01-20T19:46:39.728Z,-5.37
2024-01-20T19:49:41.471Z,-5.38
2024-01-20T19:52:43.190Z,-5.37
2024-01-20T19:55:44.925Z,-5.44
2024-01-20T19:58:48.290Z,-5.45
2024-01-20T20:01:49.809Z,-5.63
2024-01-20T20:04:51.414Z,-5.72
2024-01-20T20:07:52.870Z,-5.77
2024-01-20T20:10:54.863Z,-5.85
2024-01-20T20:13:56.536Z,-5.79
2024-01-20T20:16:57.941Z,-5.93
2024-01-20T20:19:59.450Z,-5.98
2024-01-20T20:23:01.330Z,-6.01
2024-01-20T20:26:02.907Z,-6.01
2024-01-20T20:29:04.470Z,-6.11
2024-01-20T20:32:06.077Z,-6.19
2024-01-20T20:35:07.665Z,-6.20
2024-01-20T20:38:10.981Z,-6.24
2024-01-20T20:41:12.879Z,-6.25
2024-01-20T20:44:14.525Z,-6.26
2024-01-20T20:47:16.001Z,-6.27
2024-01-20T20:50:18.825Z,-6.32
2024-01-20T20:53:20.228Z,-6.43
2024-01-20T20:56:21.706Z,-6.47
2024-01-20T20:59:23.189Z,-6.45
2024-01-20T21:02:24.878Z,-6.54
2024-01-20T21:05:26.329Z,-6.52
2024-01-20T21:08:27.814Z,-6.51
2024-01-20T21:11:29.617Z,-6.51
2024-01-20T21:14:31.121Z,-6.48
2024-01-20T21:17:33.926Z,-6.60
2024-01-20T21:20:35.421Z,-6.71
2024-01-20T21:23:36.824Z,-6.65
2024-01-20T21:26:38.877Z,-6.85
2024-01-20T21:29:40.483Z,-6.85
2024-01-20T21:32:42.951Z,-7.07
2024-01-20T21:35:44.727Z,-7.02
2024-01-20T21:38:46.823Z,-7.10
2024-01-20T21:41:48.449Z,-7.16
2024-01-20T21:44:49.914Z,-7.07
2024-01-20T21:47:51.435Z,-6.96
2024-01-20T21:50:55.590Z,-7.07
2024-01-20T21:53:57.214Z,-7.10
2024-01-20T21:56:58.919Z,-7.04
2024-01-20T22:00:00.502Z,-7.01
2024-01-20T22:03:02.047Z,-7.13
2024-01-20T22:06:03.740Z,-7.20
2024-01-20T22:09:06.272Z,-7.16
2024-01-20T22:12:07.984Z,-6.97
2024-01-20T22:15:10.094Z,-7.10
2024-01-20T22:18:11.766Z,-6.98
2024-01-20T22:21:13.388Z,-6.96
2024-01-20T22:24:14.890Z,-6.98
2024-01-20T22:27:16.455Z,-6.97
2024-01-20T22:30:17.954Z,-6.82
2024-01-20T22:33:19.480Z,-6.70
2024-01-20T22:36:21.042Z,-6.71
2024-01-20T22:39:22.547Z,-6.77
2024-01-20T22:42:24.043Z,-6.65
2024-01-20T22:45:26.150Z,-6.59
2024-01-20T22:48:33.251Z,-6.71
2024-01-20T22:51:34.809Z,-6.80
2024-01-20T22:54:36.272Z,-6.75
2024-01-20T22:57:38.104Z,-6.70
2024-01-20T23:00:40.373Z,-6.70
2024-01-20T23:03:42.133Z,-6.79
2024-01-20T23:06:43.731Z,-6.90
2024-01-20T23:09:45.467Z,-6.96
2024-01-20T23:12:47.604Z,-6.88
2024-01-20T23:15:49.155Z,-6.82
2024-01-20T23:18:50.688Z,-7.07
2024-01-20T23:21:52.179Z,-7.28
2024-01-20T23:24:53.752Z,-7.25
2024-01-20T23:27:55.401Z,-7.44
2024-01-20T23:30:56.880Z,-7.31
2024-01-20T23:33:58.483Z,-7.29
2024-01-20T23:37:00.208Z,-7.27
2024-01-20T23:40:02.923Z,-7.27
2024-01-20T23:43:04.482Z,-7.31
2024-01-20T23:46:06.342Z,-7.28
2024-01-20T23:49:07.788Z,-7.26
2024-01-20T23:52:09.173Z,-7.30
2024-01-20T23:55:10.569Z,-7.12
2024-01-20T23:58:12.089Z,-7.09
